Main page
METAR-TAF:

METAR-TAF

Airports :

Helsinki Airport

Helsinki, Finland

latitude: 60-19N, longitude: 024-58E, elevation: 51 m

Current weather observation

The report was made 14 minutes ago, at 02:20 UTC
Wind 2 kt from the Northeast
Temperature 7°C
Humidity 93%
Pressure 1025 hPa
Visibility 10 km or more
no clouds below 1500 m and no cumulonimbus

METAR: EFHK 220220Z 05002KT CAVOK 07/06 Q1025 NOSIG

Time: 05:34 (02:34 UTC)

Forecast

The report was made 3 hours and 10 minutes ago, at 23:24 UTC
Forecast valid from 22 at 00 UTC to 22 at 24 UTC
Wind 3 kt from the East/Southeast
Visibility 10 km or more
no clouds below 1500 m and no cumulonimbus
Temporary
from 22 at 09 UTC to 22 at 14 UTC
Wind 13 kt from the Southeast

TAF: EFHK 212324Z 2200/2224 12003KT CAVOK TEMPO 2209/2214 13013KT

Weather observations and forecasts of more than 4000 airports (METAR and TAF reports).

The available stations are represented by yellow and red dots on the map.

Hover mouse over dot to see the name of the station.

Then click to see weather observations and forecasts.

To change the map : click on the green buttons with a black cross to zoom in, on the green button with a dash to zoom out, or on the green arrows for adjacent maps.


METAR-TAF: